sensor_id;sensor_type;location;lat;lon;timestamp;P1;durP1;ratioP1;P2;durP2;ratioP2
70733;SDS011;58320;48.804;9.252;2023-04-25T00:01:31;4.10;;;1.97;;
70733;SDS011;58320;48.804;9.252;2023-04-25T00:04:00;3.42;;;1.75;;
70733;SDS011;58320;48.804;9.252;2023-04-25T00:06:28;4.18;;;1.90;;
70733;SDS011;58320;48.804;9.252;2023-04-25T00:08:56;3.50;;;1.60;;
70733;SDS011;58320;48.804;9.252;2023-04-25T00:11:23;4.35;;;2.05;;
70733;SDS011;58320;48.804;9.252;2023-04-25T00:13:49;3.50;;;2.10;;
70733;SDS011;58320;48.804;9.252;2023-04-25T00:16:17;4.32;;;1.40;;
70733;SDS011;58320;48.804;9.252;2023-04-25T00:18:43;3.75;;;2.10;;
70733;SDS011;58320;48.804;9.252;2023-04-25T00:21:11;3.65;;;2.20;;
70733;SDS011;58320;48.804;9.252;2023-04-25T00:23:37;3.30;;;1.70;;
70733;SDS011;58320;48.804;9.252;2023-04-25T00:26:03;3.03;;;1.80;;
70733;SDS011;58320;48.804;9.252;2023-04-25T00:28:29;4.07;;;1.73;;
70733;SDS011;58320;48.804;9.252;2023-04-25T00:30:55;3.77;;;1.73;;
70733;SDS011;58320;48.804;9.252;2023-04-25T00:33:21;3.80;;;2.20;;
70733;SDS011;58320;48.804;9.252;2023-04-25T00:35:46;3.10;;;1.85;;
70733;SDS011;58320;48.804;9.252;2023-04-25T00:38:12;3.40;;;1.80;;
70733;SDS011;58320;48.804;9.252;2023-04-25T00:40:38;3.80;;;1.98;;
70733;SDS011;58320;48.804;9.252;2023-04-25T00:43:04;3.15;;;1.75;;
70733;SDS011;58320;48.804;9.252;2023-04-25T00:45:30;3.60;;;1.87;;
70733;SDS011;58320;48.804;9.252;2023-04-25T00:47:56;3.63;;;2.15;;
70733;SDS011;58320;48.804;9.252;2023-04-25T00:50:22;4.30;;;2.03;;
70733;SDS011;58320;48.804;9.252;2023-04-25T00:52:49;3.30;;;1.90;;
70733;SDS011;58320;48.804;9.252;2023-04-25T00:55:15;3.97;;;2.03;;
70733;SDS011;58320;48.804;9.252;2023-04-25T00:57:40;3.50;;;2.00;;
70733;SDS011;58320;48.804;9.252;2023-04-25T01:00:08;3.67;;;1.90;;
70733;SDS011;58320;48.804;9.252;2023-04-25T01:02:36;4.03;;;1.80;;
70733;SDS011;58320;48.804;9.252;2023-04-25T01:05:02;3.37;;;1.90;;
70733;SDS011;58320;48.804;9.252;2023-04-25T01:07:28;4.25;;;1.70;;
70733;SDS011;58320;48.804;9.252;2023-04-25T01:09:55;5.03;;;1.90;;
70733;SDS011;58320;48.804;9.252;2023-04-25T01:12:21;4.25;;;2.25;;
70733;SDS011;58320;48.804;9.252;2023-04-25T01:14:48;3.30;;;2.00;;
70733;SDS011;58320;48.804;9.252;2023-04-25T01:17:14;4.03;;;1.80;;
70733;SDS011;58320;48.804;9.252;2023-04-25T01:19:41;3.38;;;1.77;;
70733;SDS011;58320;48.804;9.252;2023-04-25T01:22:06;3.67;;;1.90;;
70733;SDS011;58320;48.804;9.252;2023-04-25T01:24:35;3.92;;;1.98;;
70733;SDS011;58320;48.804;9.252;2023-04-25T01:27:02;4.70;;;2.30;;
70733;SDS011;58320;48.804;9.252;2023-04-25T01:29:28;3.80;;;2.30;;
70733;SDS011;58320;48.804;9.252;2023-04-25T01:31:55;3.58;;;1.90;;
70733;SDS011;58320;48.804;9.252;2023-04-25T01:34:21;4.38;;;2.60;;
70733;SDS011;58320;48.804;9.252;2023-04-25T01:36:48;3.88;;;2.20;;
70733;SDS011;58320;48.804;9.252;2023-04-25T01:39:15;4.17;;;2.47;;
70733;SDS011;58320;48.804;9.252;2023-04-25T01:41:45;5.53;;;2.55;;
70733;SDS011;58320;48.804;9.252;2023-04-25T01:44:12;3.85;;;2.13;;
70733;SDS011;58320;48.804;9.252;2023-04-25T01:46:38;5.47;;;2.30;;
70733;SDS011;58320;48.804;9.252;2023-04-25T01:49:04;4.90;;;2.33;;
70733;SDS011;58320;48.804;9.252;2023-04-25T01:51:31;3.60;;;2.17;;
70733;SDS011;58320;48.804;9.252;2023-04-25T01:53:57;4.15;;;2.30;;
70733;SDS011;58320;48.804;9.252;2023-04-25T01:56:23;4.43;;;2.28;;
70733;SDS011;58320;48.804;9.252;2023-04-25T01:58:49;4.15;;;2.17;;
70733;SDS011;58320;48.804;9.252;2023-04-25T02:01:16;3.53;;;2.00;;
70733;SDS011;58320;48.804;9.252;2023-04-25T02:03:42;4.40;;;2.20;;
70733;SDS011;58320;48.804;9.252;2023-04-25T02:06:08;4.28;;;2.20;;
70733;SDS011;58320;48.804;9.252;2023-04-25T02:08:34;3.80;;;2.30;;
70733;SDS011;58320;48.804;9.252;2023-04-25T02:11:02;4.13;;;2.30;;
70733;SDS011;58320;48.804;9.252;2023-04-25T02:13:28;5.75;;;2.60;;
70733;SDS011;58320;48.804;9.252;2023-04-25T02:15:54;4.60;;;2.72;;
70733;SDS011;58320;48.804;9.252;2023-04-25T02:18:19;4.60;;;2.97;;
70733;SDS011;58320;48.804;9.252;2023-04-25T02:20:46;4.13;;;2.50;;
70733;SDS011;58320;48.804;9.252;2023-04-25T02:23:12;4.95;;;2.70;;
70733;SDS011;58320;48.804;9.252;2023-04-25T02:25:40;5.25;;;2.47;;
70733;SDS011;58320;48.804;9.252;2023-04-25T02:28:06;3.50;;;2.22;;
70733;SDS011;58320;48.804;9.252;2023-04-25T02:30:32;4.57;;;2.50;;
70733;SDS011;58320;48.804;9.252;2023-04-25T02:32:58;4.30;;;2.40;;
70733;SDS011;58320;48.804;9.252;2023-04-25T02:35:24;4.72;;;2.20;;
70733;SDS011;58320;48.804;9.252;2023-04-25T02:37:50;6.73;;;2.83;;
70733;SDS011;58320;48.804;9.252;2023-04-25T02:40:16;4.85;;;2.58;;
70733;SDS011;58320;48.804;9.252;2023-04-25T02:42:41;4.30;;;2.63;;
70733;SDS011;58320;48.804;9.252;2023-04-25T02:45:07;5.30;;;2.10;;
70733;SDS011;58320;48.804;9.252;2023-04-25T02:47:34;4.72;;;2.70;;
70733;SDS011;58320;48.804;9.252;2023-04-25T02:49:59;7.00;;;2.80;;
70733;SDS011;58320;48.804;9.252;2023-04-25T02:52:25;6.67;;;2.47;;
70733;SDS011;58320;48.804;9.252;2023-04-25T02:54:51;4.20;;;2.60;;
70733;SDS011;58320;48.804;9.252;2023-04-25T02:57:17;5.20;;;2.50;;
70733;SDS011;58320;48.804;9.252;2023-04-25T02:59:42;4.57;;;2.60;;
70733;SDS011;58320;48.804;9.252;2023-04-25T03:02:08;5.33;;;2.90;;
70733;SDS011;58320;48.804;9.252;2023-04-25T03:04:34;4.55;;;2.58;;
70733;SDS011;58320;48.804;9.252;2023-04-25T03:07:00;5.82;;;2.55;;
70733;SDS011;58320;48.804;9.252;2023-04-25T03:09:26;4.20;;;2.80;;
70733;SDS011;58320;48.804;9.252;2023-04-25T03:11:52;3.90;;;2.30;;
70733;SDS011;58320;48.804;9.252;2023-04-25T03:14:18;4.40;;;2.60;;
70733;SDS011;58320;48.804;9.252;2023-04-25T03:16:43;5.43;;;2.60;;
70733;SDS011;58320;48.804;9.252;2023-04-25T03:19:10;4.78;;;2.53;;
70733;SDS011;58320;48.804;9.252;2023-04-25T03:21:35;5.30;;;2.50;;
70733;SDS011;58320;48.804;9.252;2023-04-25T03:24:02;5.60;;;2.42;;
70733;SDS011;58320;48.804;9.252;2023-04-25T03:26:29;4.77;;;2.20;;
70733;SDS011;58320;48.804;9.252;2023-04-25T03:28:55;3.88;;;2.40;;
70733;SDS011;58320;48.804;9.252;2023-04-25T03:31:21;3.92;;;2.30;;
70733;SDS011;58320;48.804;9.252;2023-04-25T03:33:47;3.80;;;2.30;;
70733;SDS011;58320;48.804;9.252;2023-04-25T03:36:13;4.30;;;2.30;;
70733;SDS011;58320;48.804;9.252;2023-04-25T03:38:38;5.53;;;2.53;;
70733;SDS011;58320;48.804;9.252;2023-04-25T03:41:06;5.10;;;2.47;;
70733;SDS011;58320;48.804;9.252;2023-04-25T03:43:32;4.30;;;2.57;;
70733;SDS011;58320;48.804;9.252;2023-04-25T03:45:57;4.28;;;2.40;;
70733;SDS011;58320;48.804;9.252;2023-04-25T03:48:23;5.53;;;2.80;;
70733;SDS011;58320;48.804;9.252;2023-04-25T03:50:51;4.47;;;2.67;;
70733;SDS011;58320;48.804;9.252;2023-04-25T03:53:18;4.40;;;2.40;;
70733;SDS011;58320;48.804;9.252;2023-04-25T03:55:43;4.95;;;2.42;;
70733;SDS011;58320;48.804;9.252;2023-04-25T03:58:09;4.93;;;2.40;;
70733;SDS011;58320;48.804;9.252;2023-04-25T04:00:35;5.25;;;2.60;;
70733;SDS011;58320;48.804;9.252;2023-04-25T04:03:01;4.80;;;2.45;;
70733;SDS011;58320;48.804;9.252;2023-04-25T04:05:27;5.93;;;2.80;;
70733;SDS011;58320;48.804;9.252;2023-04-25T04:07:53;4.70;;;2.50;;
70733;SDS011;58320;48.804;9.252;2023-04-25T04:10:20;4.28;;;2.35;;
70733;SDS011;58320;48.804;9.252;2023-04-25T04:12:46;4.32;;;2.85;;
70733;SDS011;58320;48.804;9.252;2023-04-25T04:15:11;4.20;;;2.40;;
70733;SDS011;58320;48.804;9.252;2023-04-25T04:17:37;3.72;;;2.38;;
70733;SDS011;58320;48.804;9.252;2023-04-25T04:20:04;4.45;;;2.50;;
70733;SDS011;58320;48.804;9.252;2023-04-25T04:22:31;6.03;;;3.00;;
70733;SDS011;58320;48.804;9.252;2023-04-25T04:24:57;3.60;;;2.17;;
70733;SDS011;58320;48.804;9.252;2023-04-25T04:27:23;4.32;;;2.53;;
70733;SDS011;58320;48.804;9.252;2023-04-25T04:29:49;5.72;;;2.40;;
70733;SDS011;58320;48.804;9.252;2023-04-25T04:32:17;4.10;;;2.63;;
70733;SDS011;58320;48.804;9.252;2023-04-25T04:34:43;5.70;;;2.43;;
70733;SDS011;58320;48.804;9.252;2023-04-25T04:37:09;3.92;;;2.50;;
70733;SDS011;58320;48.804;9.252;2023-04-25T04:39:37;4.72;;;2.55;;
70733;SDS011;58320;48.804;9.252;2023-04-25T04:42:03;4.35;;;2.50;;
70733;SDS011;58320;48.804;9.252;2023-04-25T04:44:30;7.83;;;2.83;;
70733;SDS011;58320;48.804;9.252;2023-04-25T04:46:59;5.05;;;2.75;;
70733;SDS011;58320;48.804;9.252;2023-04-25T04:49:25;4.80;;;2.70;;
70733;SDS011;58320;48.804;9.252;2023-04-25T04:51:51;7.57;;;2.78;;
70733;SDS011;58320;48.804;9.252;2023-04-25T04:54:17;4.30;;;2.50;;
70733;SDS011;58320;48.804;9.252;2023-04-25T04:56:43;5.32;;;2.72;;
70733;SDS011;58320;48.804;9.252;2023-04-25T04:59:08;4.63;;;2.63;;
70733;SDS011;58320;48.804;9.252;2023-04-25T05:01:34;5.30;;;2.97;;
70733;SDS011;58320;48.804;9.252;2023-04-25T05:04:00;5.70;;;3.08;;
70733;SDS011;58320;48.804;9.252;2023-04-25T05:06:27;5.00;;;3.17;;
70733;SDS011;58320;48.804;9.252;2023-04-25T05:08:54;5.07;;;2.70;;
70733;SDS011;58320;48.804;9.252;2023-04-25T05:11:21;5.72;;;3.13;;
70733;SDS011;58320;48.804;9.252;2023-04-25T05:13:53;4.20;;;2.60;;
70733;SDS011;58320;48.804;9.252;2023-04-25T05:16:20;5.00;;;3.10;;
70733;SDS011;58320;48.804;9.252;2023-04-25T05:18:46;4.85;;;3.25;;
70733;SDS011;58320;48.804;9.252;2023-04-25T05:21:12;5.38;;;3.00;;
70733;SDS011;58320;48.804;9.252;2023-04-25T05:23:38;7.33;;;3.30;;
70733;SDS011;58320;48.804;9.252;2023-04-25T05:26:04;6.72;;;3.70;;
70733;SDS011;58320;48.804;9.252;2023-04-25T05:28:30;5.25;;;3.00;;
70733;SDS011;58320;48.804;9.252;2023-04-25T05:30:56;4.90;;;3.50;;
70733;SDS011;58320;48.804;9.252;2023-04-25T05:33:23;6.93;;;3.43;;
70733;SDS011;58320;48.804;9.252;2023-04-25T05:35:49;6.03;;;2.88;;
70733;SDS011;58320;48.804;9.252;2023-04-25T05:38:15;5.35;;;3.47;;
70733;SDS011;58320;48.804;9.252;2023-04-25T05:40:41;5.70;;;3.83;;
70733;SDS011;58320;48.804;9.252;2023-04-25T05:43:07;7.03;;;3.50;;
70733;SDS011;58320;48.804;9.252;2023-04-25T05:45:32;5.93;;;3.38;;
70733;SDS011;58320;48.804;9.252;2023-04-25T05:47:58;5.83;;;3.87;;
70733;SDS011;58320;48.804;9.252;2023-04-25T05:50:24;6.38;;;4.10;;
70733;SDS011;58320;48.804;9.252;2023-04-25T05:52:50;7.22;;;4.22;;
70733;SDS011;58320;48.804;9.252;2023-04-25T05:55:16;7.25;;;4.43;;
70733;SDS011;58320;48.804;9.252;2023-04-25T05:57:42;6.83;;;4.57;;
70733;SDS011;58320;48.804;9.252;2023-04-25T06:00:11;7.72;;;4.40;;
70733;SDS011;58320;48.804;9.252;2023-04-25T06:02:38;6.13;;;3.97;;
70733;SDS011;58320;48.804;9.252;2023-04-25T06:05:04;6.43;;;4.07;;
70733;SDS011;58320;48.804;9.252;2023-04-25T06:07:30;6.93;;;4.10;;
70733;SDS011;58320;48.804;9.252;2023-04-25T06:09:56;6.70;;;4.30;;
70733;SDS011;58320;48.804;9.252;2023-04-25T06:12:22;6.70;;;4.30;;
70733;SDS011;58320;48.804;9.252;2023-04-25T06:14:47;6.80;;;4.10;;
70733;SDS011;58320;48.804;9.252;2023-04-25T06:17:13;6.95;;;4.03;;
70733;SDS011;58320;48.804;9.252;2023-04-25T06:19:39;6.03;;;3.90;;
70733;SDS011;58320;48.804;9.252;2023-04-25T06:22:05;6.40;;;3.38;;
70733;SDS011;58320;48.804;9.252;2023-04-25T06:24:32;6.00;;;3.87;;
70733;SDS011;58320;48.804;9.252;2023-04-25T06:26:58;5.40;;;3.13;;
70733;SDS011;58320;48.804;9.252;2023-04-25T06:29:24;6.30;;;3.25;;
70733;SDS011;58320;48.804;9.252;2023-04-25T06:31:50;6.05;;;4.00;;
70733;SDS011;58320;48.804;9.252;2023-04-25T06:34:16;6.70;;;3.37;;
70733;SDS011;58320;48.804;9.252;2023-04-25T06:36:42;4.85;;;3.33;;
70733;SDS011;58320;48.804;9.252;2023-04-25T06:39:09;5.55;;;3.15;;
70733;SDS011;58320;48.804;9.252;2023-04-25T06:41:35;5.75;;;3.60;;
70733;SDS011;58320;48.804;9.252;2023-04-25T06:44:01;6.23;;;3.67;;
70733;SDS011;58320;48.804;9.252;2023-04-25T06:46:27;5.55;;;3.65;;
70733;SDS011;58320;48.804;9.252;2023-04-25T06:48:52;6.53;;;3.60;;
70733;SDS011;58320;48.804;9.252;2023-04-25T06:51:18;5.63;;;3.45;;
70733;SDS011;58320;48.804;9.252;2023-04-25T06:53:44;5.10;;;3.03;;
70733;SDS011;58320;48.804;9.252;2023-04-25T06:56:10;5.63;;;3.57;;
70733;SDS011;58320;48.804;9.252;2023-04-25T06:58:36;5.75;;;3.42;;
70733;SDS011;58320;48.804;9.252;2023-04-25T07:01:01;5.28;;;3.45;;
70733;SDS011;58320;48.804;9.252;2023-04-25T07:03:28;5.73;;;3.00;;
70733;SDS011;58320;48.804;9.252;2023-04-25T07:05:53;4.85;;;3.00;;
70733;SDS011;58320;48.804;9.252;2023-04-25T07:08:20;4.97;;;3.00;;
70733;SDS011;58320;48.804;9.252;2023-04-25T07:10:46;5.37;;;3.07;;
70733;SDS011;58320;48.804;9.252;2023-04-25T07:13:12;5.05;;;2.97;;
70733;SDS011;58320;48.804;9.252;2023-04-25T07:15:37;5.25;;;3.05;;
70733;SDS011;58320;48.804;9.252;2023-04-25T07:18:03;5.10;;;3.00;;
70733;SDS011;58320;48.804;9.252;2023-04-25T07:20:29;6.32;;;2.97;;
70733;SDS011;58320;48.804;9.252;2023-04-25T07:22:56;5.93;;;3.50;;
70733;SDS011;58320;48.804;9.252;2023-04-25T07:25:22;5.13;;;3.17;;
70733;SDS011;58320;48.804;9.252;2023-04-25T07:27:48;4.67;;;3.17;;
70733;SDS011;58320;48.804;9.252;2023-04-25T07:30:14;5.40;;;3.65;;
70733;SDS011;58320;48.804;9.252;2023-04-25T07:32:40;5.93;;;4.05;;
70733;SDS011;58320;48.804;9.252;2023-04-25T07:35:06;5.95;;;3.75;;
70733;SDS011;58320;48.804;9.252;2023-04-25T07:37:33;5.30;;;3.60;;
70733;SDS011;58320;48.804;9.252;2023-04-25T07:40:00;5.47;;;3.63;;
70733;SDS011;58320;48.804;9.252;2023-04-25T07:42:29;6.00;;;3.88;;
70733;SDS011;58320;48.804;9.252;2023-04-25T07:44:55;5.75;;;3.50;;
70733;SDS011;58320;48.804;9.252;2023-04-25T07:47:21;6.68;;;3.83;;
70733;SDS011;58320;48.804;9.252;2023-04-25T07:49:47;6.20;;;4.00;;
70733;SDS011;58320;48.804;9.252;2023-04-25T07:52:13;7.00;;;4.20;;
70733;SDS011;58320;48.804;9.252;2023-04-25T07:54:39;6.60;;;3.95;;
70733;SDS011;58320;48.804;9.252;2023-04-25T07:57:05;7.57;;;4.22;;
70733;SDS011;58320;48.804;9.252;2023-04-25T07:59:33;8.93;;;4.90;;
70733;SDS011;58320;48.804;9.252;2023-04-25T08:02:00;7.67;;;5.20;;
70733;SDS011;58320;48.804;9.252;2023-04-25T08:04:26;7.90;;;5.53;;
70733;SDS011;58320;48.804;9.252;2023-04-25T08:06:52;8.73;;;5.80;;
70733;SDS011;58320;48.804;9.252;2023-04-25T08:09:19;9.95;;;6.32;;
70733;SDS011;58320;48.804;9.252;2023-04-25T08:11:45;11.30;;;5.77;;
70733;SDS011;58320;48.804;9.252;2023-04-25T08:14:12;9.70;;;6.38;;
70733;SDS011;58320;48.804;9.252;2023-04-25T08:16:38;11.30;;;7.28;;
70733;SDS011;58320;48.804;9.252;2023-04-25T08:19:04;10.23;;;6.03;;
70733;SDS011;58320;48.804;9.252;2023-04-25T08:21:30;11.05;;;7.20;;
70733;SDS011;58320;48.804;9.252;2023-04-25T08:23:56;11.83;;;6.27;;
70733;SDS011;58320;48.804;9.252;2023-04-25T08:26:23;10.75;;;6.13;;
70733;SDS011;58320;48.804;9.252;2023-04-25T08:28:50;11.90;;;6.45;;
70733;SDS011;58320;48.804;9.252;2023-04-25T08:31:16;11.13;;;6.90;;
70733;SDS011;58320;48.804;9.252;2023-04-25T08:33:42;11.68;;;7.05;;
70733;SDS011;58320;48.804;9.252;2023-04-25T08:36:10;12.00;;;6.70;;
70733;SDS011;58320;48.804;9.252;2023-04-25T08:38:35;9.88;;;6.90;;
70733;SDS011;58320;48.804;9.252;2023-04-25T08:41:02;12.10;;;7.47;;
70733;SDS011;58320;48.804;9.252;2023-04-25T08:43:28;10.60;;;7.22;;
70733;SDS011;58320;48.804;9.252;2023-04-25T08:45:58;10.65;;;6.80;;
70733;SDS011;58320;48.804;9.252;2023-04-25T08:48:29;11.20;;;7.20;;
70733;SDS011;58320;48.804;9.252;2023-04-25T08:50:58;13.82;;;7.78;;
70733;SDS011;58320;48.804;9.252;2023-04-25T08:53:29;13.73;;;7.07;;
70733;SDS011;58320;48.804;9.252;2023-04-25T08:55:57;9.20;;;6.60;;
70733;SDS011;58320;48.804;9.252;2023-04-25T08:58:24;10.18;;;6.97;;
70733;SDS011;58320;48.804;9.252;2023-04-25T09:00:51;10.47;;;6.70;;
70733;SDS011;58320;48.804;9.252;2023-04-25T09:03:18;10.20;;;6.10;;
70733;SDS011;58320;48.804;9.252;2023-04-25T09:05:44;11.45;;;7.35;;
70733;SDS011;58320;48.804;9.252;2023-04-25T09:08:10;10.15;;;6.68;;
70733;SDS011;58320;48.804;9.252;2023-04-25T09:10:36;9.60;;;5.93;;
70733;SDS011;58320;48.804;9.252;2023-04-25T09:15:46;9.52;;;5.90;;
70733;SDS011;58320;48.804;9.252;2023-04-25T09:18:25;10.05;;;6.32;;
70733;SDS011;58320;48.804;9.252;2023-04-25T09:23:41;11.60;;;6.47;;
70733;SDS011;58320;48.804;9.252;2023-04-25T09:26:10;13.13;;;6.72;;
70733;SDS011;58320;48.804;9.252;2023-04-25T09:28:42;9.85;;;6.43;;
70733;SDS011;58320;48.804;9.252;2023-04-25T09:31:11;10.77;;;6.70;;
70733;SDS011;58320;48.804;9.252;2023-04-25T09:33:37;11.00;;;6.63;;
70733;SDS011;58320;48.804;9.252;2023-04-25T09:38:32;12.30;;;6.95;;
70733;SDS011;58320;48.804;9.252;2023-04-25T09:41:09;13.68;;;8.05;;
70733;SDS011;58320;48.804;9.252;2023-04-25T09:43:36;12.30;;;7.38;;
70733;SDS011;58320;48.804;9.252;2023-04-25T09:46:12;11.73;;;6.77;;
70733;SDS011;58320;48.804;9.252;2023-04-25T09:48:38;12.27;;;7.40;;
70733;SDS011;58320;48.804;9.252;2023-04-25T09:51:11;11.02;;;5.97;;
70733;SDS011;58320;48.804;9.252;2023-04-25T09:53:42;9.00;;;5.15;;
70733;SDS011;58320;48.804;9.252;2023-04-25T09:56:16;7.35;;;4.40;;
70733;SDS011;58320;48.804;9.252;2023-04-25T09:58:45;7.33;;;3.77;;
70733;SDS011;58320;48.804;9.252;2023-04-25T10:01:14;5.90;;;3.10;;
70733;SDS011;58320;48.804;9.252;2023-04-25T10:03:41;4.78;;;2.90;;
70733;SDS011;58320;48.804;9.252;2023-04-25T10:06:09;4.63;;;2.97;;
70733;SDS011;58320;48.804;9.252;2023-04-25T10:08:41;5.00;;;3.15;;
70733;SDS011;58320;48.804;9.252;2023-04-25T10:11:08;5.53;;;3.07;;
70733;SDS011;58320;48.804;9.252;2023-04-25T10:13:34;6.10;;;3.42;;
70733;SDS011;58320;48.804;9.252;2023-04-25T10:16:01;6.28;;;3.67;;
70733;SDS011;58320;48.804;9.252;2023-04-25T10:18:30;7.90;;;4.30;;
70733;SDS011;58320;48.804;9.252;2023-04-25T10:21:01;6.77;;;4.00;;
70733;SDS011;58320;48.804;9.252;2023-04-25T10:23:29;6.97;;;4.22;;
70733;SDS011;58320;48.804;9.252;2023-04-25T10:25:56;6.68;;;4.38;;
70733;SDS011;58320;48.804;9.252;2023-04-25T10:28:23;7.47;;;4.40;;
70733;SDS011;58320;48.804;9.252;2023-04-25T10:31:03;6.78;;;4.25;;
70733;SDS011;58320;48.804;9.252;2023-04-25T10:33:33;7.20;;;4.70;;
70733;SDS011;58320;48.804;9.252;2023-04-25T10:36:15;7.40;;;4.10;;
70733;SDS011;58320;48.804;9.252;2023-04-25T10:38:45;7.45;;;4.20;;
70733;SDS011;58320;48.804;9.252;2023-04-25T10:41:15;8.15;;;4.70;;
70733;SDS011;58320;48.804;9.252;2023-04-25T10:43:44;6.95;;;4.32;;
70733;SDS011;58320;48.804;9.252;2023-04-25T10:48:47;6.60;;;3.88;;
70733;SDS011;58320;48.804;9.252;2023-04-25T10:51:25;7.80;;;4.05;;
70733;SDS011;58320;48.804;9.252;2023-04-25T10:56:28;8.55;;;5.40;;
70733;SDS011;58320;48.804;9.252;2023-04-25T11:04:24;8.20;;;5.20;;
70733;SDS011;58320;48.804;9.252;2023-04-25T11:10:05;7.97;;;4.30;;
70733;SDS011;58320;48.804;9.252;2023-04-25T11:12:32;6.07;;;3.53;;
70733;SDS011;58320;48.804;9.252;2023-04-25T11:15:02;7.18;;;3.30;;
70733;SDS011;58320;48.804;9.252;2023-04-25T11:17:29;6.30;;;3.25;;
70733;SDS011;58320;48.804;9.252;2023-04-25T11:19:56;6.13;;;3.20;;
70733;SDS011;58320;48.804;9.252;2023-04-25T11:22:22;6.77;;;3.17;;
70733;SDS011;58320;48.804;9.252;2023-04-25T11:24:48;5.30;;;2.85;;
70733;SDS011;58320;48.804;9.252;2023-04-25T11:27:15;5.65;;;3.25;;
70733;SDS011;58320;48.804;9.252;2023-04-25T11:29:41;6.82;;;3.20;;
70733;SDS011;58320;48.804;9.252;2023-04-25T11:32:07;5.97;;;3.30;;
70733;SDS011;58320;48.804;9.252;2023-04-25T11:34:33;5.15;;;3.28;;
70733;SDS011;58320;48.804;9.252;2023-04-25T11:37:00;5.53;;;3.17;;
70733;SDS011;58320;48.804;9.252;2023-04-25T11:39:27;8.05;;;3.60;;
70733;SDS011;58320;48.804;9.252;2023-04-25T11:41:54;5.65;;;3.50;;
70733;SDS011;58320;48.804;9.252;2023-04-25T11:44:20;5.70;;;3.43;;
70733;SDS011;58320;48.804;9.252;2023-04-25T11:46:46;5.47;;;3.40;;
70733;SDS011;58320;48.804;9.252;2023-04-25T11:49:13;5.78;;;3.65;;
70733;SDS011;58320;48.804;9.252;2023-04-25T11:51:42;6.95;;;4.03;;
70733;SDS011;58320;48.804;9.252;2023-04-25T11:54:11;8.30;;;4.53;;
70733;SDS011;58320;48.804;9.252;2023-04-25T11:56:37;7.73;;;4.07;;
70733;SDS011;58320;48.804;9.252;2023-04-25T11:59:09;8.02;;;4.80;;
70733;SDS011;58320;48.804;9.252;2023-04-25T12:01:36;8.40;;;4.53;;
70733;SDS011;58320;48.804;9.252;2023-04-25T12:06:59;6.07;;;3.30;;
70733;SDS011;58320;48.804;9.252;2023-04-25T12:09:32;5.80;;;3.20;;
70733;SDS011;58320;48.804;9.252;2023-04-25T12:11:59;6.18;;;3.72;;
70733;SDS011;58320;48.804;9.252;2023-04-25T12:14:31;6.55;;;4.15;;
70733;SDS011;58320;48.804;9.252;2023-04-25T12:17:00;7.28;;;4.40;;
70733;SDS011;58320;48.804;9.252;2023-04-25T12:19:32;7.30;;;4.53;;
70733;SDS011;58320;48.804;9.252;2023-04-25T12:22:00;8.40;;;5.00;;
70733;SDS011;58320;48.804;9.252;2023-04-25T12:24:28;8.35;;;5.00;;
70733;SDS011;58320;48.804;9.252;2023-04-25T12:26:58;8.40;;;5.47;;
70733;SDS011;58320;48.804;9.252;2023-04-25T12:29:30;9.05;;;5.32;;
70733;SDS011;58320;48.804;9.252;2023-04-25T12:31:58;8.93;;;5.72;;
70733;SDS011;58320;48.804;9.252;2023-04-25T12:34:24;9.13;;;5.10;;
70733;SDS011;58320;48.804;9.252;2023-04-25T12:36:51;10.02;;;5.35;;
70733;SDS011;58320;48.804;9.252;2023-04-25T12:39:21;9.73;;;5.93;;
70733;SDS011;58320;48.804;9.252;2023-04-25T12:41:52;9.88;;;6.10;;
70733;SDS011;58320;48.804;9.252;2023-04-25T12:44:21;13.50;;;7.70;;
70733;SDS011;58320;48.804;9.252;2023-04-25T12:46:46;12.87;;;6.57;;
70733;SDS011;58320;48.804;9.252;2023-04-25T12:49:13;11.25;;;6.85;;
70733;SDS011;58320;48.804;9.252;2023-04-25T12:51:39;10.02;;;6.28;;
70733;SDS011;58320;48.804;9.252;2023-04-25T12:54:06;12.55;;;5.95;;
70733;SDS011;58320;48.804;9.252;2023-04-25T12:56:33;10.63;;;5.77;;
70733;SDS011;58320;48.804;9.252;2023-04-25T12:59:00;8.48;;;5.20;;
70733;SDS011;58320;48.804;9.252;2023-04-25T13:01:27;9.50;;;5.50;;
70733;SDS011;58320;48.804;9.252;2023-04-25T13:03:53;8.02;;;5.13;;
70733;SDS011;58320;48.804;9.252;2023-04-25T13:06:20;9.75;;;5.57;;
70733;SDS011;58320;48.804;9.252;2023-04-25T13:08:46;10.27;;;5.60;;
70733;SDS011;58320;48.804;9.252;2023-04-25T13:11:11;8.38;;;5.40;;
70733;SDS011;58320;48.804;9.252;2023-04-25T13:13:37;7.75;;;4.88;;
70733;SDS011;58320;48.804;9.252;2023-04-25T13:16:05;10.38;;;5.50;;
70733;SDS011;58320;48.804;9.252;2023-04-25T13:18:32;10.20;;;5.70;;
70733;SDS011;58320;48.804;9.252;2023-04-25T13:20:58;8.80;;;5.18;;
70733;SDS011;58320;48.804;9.252;2023-04-25T13:23:25;7.43;;;5.15;;
70733;SDS011;58320;48.804;9.252;2023-04-25T13:25:52;7.53;;;4.90;;
70733;SDS011;58320;48.804;9.252;2023-04-25T13:28:20;7.30;;;5.05;;
70733;SDS011;58320;48.804;9.252;2023-04-25T13:30:46;7.60;;;4.63;;
70733;SDS011;58320;48.804;9.252;2023-04-25T13:33:13;8.13;;;4.85;;
70733;SDS011;58320;48.804;9.252;2023-04-25T13:35:40;8.45;;;4.80;;
70733;SDS011;58320;48.804;9.252;2023-04-25T13:38:06;9.77;;;5.00;;
70733;SDS011;58320;48.804;9.252;2023-04-25T13:40:32;9.20;;;4.90;;
70733;SDS011;58320;48.804;9.252;2023-04-25T13:42:58;7.90;;;5.00;;
70733;SDS011;58320;48.804;9.252;2023-04-25T13:45:24;9.80;;;5.30;;
70733;SDS011;58320;48.804;9.252;2023-04-25T13:47:50;10.15;;;5.22;;
70733;SDS011;58320;48.804;9.252;2023-04-25T13:50:16;8.73;;;5.63;;
70733;SDS011;58320;48.804;9.252;2023-04-25T13:52:42;8.38;;;5.45;;
70733;SDS011;58320;48.804;9.252;2023-04-25T13:55:08;10.75;;;5.75;;
70733;SDS011;58320;48.804;9.252;2023-04-25T13:57:34;10.80;;;6.65;;
70733;SDS011;58320;48.804;9.252;2023-04-25T14:00:01;11.43;;;7.15;;
70733;SDS011;58320;48.804;9.252;2023-04-25T14:02:33;11.60;;;7.20;;
70733;SDS011;58320;48.804;9.252;2023-04-25T14:05:00;14.15;;;8.15;;
70733;SDS011;58320;48.804;9.252;2023-04-25T14:07:27;13.30;;;8.10;;
70733;SDS011;58320;48.804;9.252;2023-04-25T14:09:52;11.57;;;8.23;;
70733;SDS011;58320;48.804;9.252;2023-04-25T14:12:18;10.98;;;7.15;;
70733;SDS011;58320;48.804;9.252;2023-04-25T14:14:44;12.07;;;7.70;;
70733;SDS011;58320;48.804;9.252;2023-04-25T14:17:10;9.83;;;7.10;;
70733;SDS011;58320;48.804;9.252;2023-04-25T14:19:36;10.65;;;6.82;;
70733;SDS011;58320;48.804;9.252;2023-04-25T14:22:03;8.93;;;6.13;;
70733;SDS011;58320;48.804;9.252;2023-04-25T14:24:29;10.95;;;6.28;;
70733;SDS011;58320;48.804;9.252;2023-04-25T14:26:55;9.63;;;6.20;;
70733;SDS011;58320;48.804;9.252;2023-04-25T14:29:21;9.15;;;5.65;;
70733;SDS011;58320;48.804;9.252;2023-04-25T14:31:47;7.68;;;5.55;;
70733;SDS011;58320;48.804;9.252;2023-04-25T14:34:12;8.33;;;5.27;;
70733;SDS011;58320;48.804;9.252;2023-04-25T14:36:38;7.95;;;5.22;;
70733;SDS011;58320;48.804;9.252;2023-04-25T14:39:04;7.30;;;5.47;;
70733;SDS011;58320;48.804;9.252;2023-04-25T14:41:30;9.63;;;5.10;;
70733;SDS011;58320;48.804;9.252;2023-04-25T14:43:55;7.80;;;4.90;;
70733;SDS011;58320;48.804;9.252;2023-04-25T14:46:22;9.13;;;5.03;;
70733;SDS011;58320;48.804;9.252;2023-04-25T14:48:48;8.03;;;5.30;;
70733;SDS011;58320;48.804;9.252;2023-04-25T14:51:14;8.43;;;5.15;;
70733;SDS011;58320;48.804;9.252;2023-04-25T14:53:40;7.30;;;4.93;;
70733;SDS011;58320;48.804;9.252;2023-04-25T14:56:06;9.52;;;5.57;;
70733;SDS011;58320;48.804;9.252;2023-04-25T14:58:33;10.93;;;5.35;;
70733;SDS011;58320;48.804;9.252;2023-04-25T15:00:59;9.27;;;4.90;;
70733;SDS011;58320;48.804;9.252;2023-04-25T15:03:25;7.60;;;5.25;;
70733;SDS011;58320;48.804;9.252;2023-04-25T15:05:52;9.75;;;5.72;;
70733;SDS011;58320;48.804;9.252;2023-04-25T15:08:20;8.07;;;5.40;;